createdAt,value
2017-09-09T00:00:17.663Z,0
2017-09-09T00:03:00.170Z,0
2017-09-09T00:05:01.587Z,0
2017-09-09T00:07:04.700Z,0
2017-09-09T00:09:06.112Z,0
2017-09-09T00:11:07.536Z,0
2017-09-09T00:13:08.968Z,0
2017-09-09T00:15:10.383Z,0
2017-09-09T00:17:11.803Z,0
2017-09-09T00:19:13.216Z,0
2017-09-09T00:21:14.633Z,0
2017-09-09T00:23:16.051Z,0
2017-09-09T00:25:17.469Z,0
2017-09-09T00:27:18.927Z,0
2017-09-09T00:29:20.353Z,0
2017-09-09T00:31:21.843Z,0
2017-09-09T00:33:23.352Z,0
2017-09-09T00:35:24.764Z,0
2017-09-09T00:37:26.200Z,0
2017-09-09T00:39:27.614Z,0
2017-09-09T00:41:29.037Z,0
2017-09-09T00:43:30.457Z,0
2017-09-09T00:45:31.889Z,0
2017-09-09T00:47:33.314Z,0
2017-09-09T00:49:34.829Z,0
2017-09-09T00:51:36.326Z,0
2017-09-09T00:53:37.835Z,0
2017-09-09T00:55:39.336Z,0
2017-09-09T00:57:40.854Z,0
2017-09-09T00:59:42.315Z,0
2017-09-09T01:01:43.923Z,0
2017-09-09T01:03:45.400Z,0
2017-09-09T01:05:46.984Z,0
2017-09-09T01:07:48.429Z,0
2017-09-09T01:09:49.901Z,0
2017-09-09T01:11:51.369Z,0
2017-09-09T01:13:52.946Z,0
2017-09-09T01:15:54.431Z,0
2017-09-09T01:17:55.984Z,0
2017-09-09T01:19:57.480Z,0
2017-09-09T01:21:58.951Z,0
2017-09-09T01:24:00.437Z,0
2017-09-09T01:26:01.903Z,0
2017-09-09T01:28:03.346Z,0
2017-09-09T01:30:04.812Z,0
2017-09-09T01:32:06.323Z,0
2017-09-09T01:34:07.806Z,0
2017-09-09T01:36:09.288Z,0
2017-09-09T01:38:51.724Z,0
2017-09-09T01:40:53.145Z,0
2017-09-09T01:42:54.561Z,0
2017-09-09T01:44:56.445Z,0
2017-09-09T01:46:57.842Z,0
2017-09-09T01:48:59.429Z,0
2017-09-09T01:51:00.849Z,0
2017-09-09T01:53:02.279Z,0
2017-09-09T01:55:03.696Z,0
2017-09-09T01:57:05.304Z,0
2017-09-09T01:59:07.037Z,0
2017-09-09T02:01:08.782Z,0
2017-09-09T02:03:10.774Z,0
2017-09-09T02:05:12.236Z,0
2017-09-09T02:07:13.703Z,0
2017-09-09T02:09:15.170Z,0
2017-09-09T02:11:16.676Z,0
2017-09-09T02:13:18.187Z,0
2017-09-09T02:15:19.687Z,0
2017-09-09T02:17:21.186Z,0
2017-09-09T02:19:23.056Z,0
2017-09-09T02:21:24.500Z,0
2017-09-09T02:23:25.914Z,0
2017-09-09T02:26:09.263Z,0
2017-09-09T02:28:10.729Z,0
2017-09-09T02:30:12.120Z,0
2017-09-09T02:32:13.546Z,0
2017-09-09T02:34:14.987Z,0
2017-09-09T02:36:16.414Z,0
2017-09-09T02:38:17.832Z,0
2017-09-09T02:40:19.269Z,0
2017-09-09T02:42:20.695Z,0
2017-09-09T02:44:22.096Z,0
2017-09-09T02:46:23.513Z,0
2017-09-09T02:48:24.924Z,0
2017-09-09T02:50:26.724Z,0
2017-09-09T02:52:28.134Z,0
2017-09-09T02:54:29.549Z,0
2017-09-09T02:56:30.982Z,0
2017-09-09T02:58:32.399Z,0
2017-09-09T03:00:33.831Z,0
2017-09-09T03:02:35.232Z,0
2017-09-09T03:04:36.651Z,0
2017-09-09T03:06:38.071Z,0
2017-09-09T03:08:39.479Z,0
2017-09-09T03:10:40.898Z,0
2017-09-09T03:12:42.369Z,0
2017-09-09T03:14:43.851Z,0
2017-09-09T03:16:45.325Z,0
2017-09-09T03:18:46.760Z,0
2017-09-09T03:20:48.245Z,0
2017-09-09T03:22:49.717Z,0
2017-09-09T03:24:51.200Z,0
2017-09-09T03:26:52.689Z,0
2017-09-09T03:28:54.162Z,0
2017-09-09T03:30:55.736Z,0
2017-09-09T03:32:57.241Z,0
2017-09-09T03:34:58.710Z,0
2017-09-09T03:37:00.230Z,0
2017-09-09T03:39:01.845Z,0
2017-09-09T03:41:03.319Z,0
2017-09-09T03:43:04.826Z,0
2017-09-09T03:45:06.316Z,0
2017-09-09T03:47:07.798Z,0
2017-09-09T03:49:09.337Z,0
2017-09-09T03:51:10.812Z,0
2017-09-09T03:53:12.458Z,0
2017-09-09T03:55:13.976Z,0
2017-09-09T03:57:15.460Z,0
2017-09-09T03:59:16.942Z,0
2017-09-09T04:01:18.373Z,0
2017-09-09T04:03:19.788Z,0
2017-09-09T04:05:21.202Z,0
2017-09-09T04:07:22.629Z,0
2017-09-09T04:09:24.068Z,0
2017-09-09T04:11:25.598Z,0
2017-09-09T04:13:27.032Z,0
2017-09-09T04:15:28.431Z,0
2017-09-09T04:17:29.877Z,0
2017-09-09T04:19:31.291Z,0
2017-09-09T04:21:32.738Z,0
2017-09-09T04:23:34.227Z,0
2017-09-09T04:25:35.644Z,0
2017-09-09T04:27:37.060Z,0
2017-09-09T04:29:38.479Z,0
2017-09-09T04:31:39.919Z,0
2017-09-09T04:33:41.452Z,0
2017-09-09T04:35:42.910Z,0
2017-09-09T04:37:44.459Z,0
2017-09-09T04:39:46.048Z,0
2017-09-09T04:41:47.587Z,0
2017-09-09T04:43:49.205Z,0
2017-09-09T04:45:50.694Z,0
2017-09-09T04:48:33.105Z,0
2017-09-09T04:50:34.521Z,0
2017-09-09T04:52:35.945Z,0
2017-09-09T04:54:37.353Z,0
2017-09-09T04:56:39.169Z,0
2017-09-09T04:58:40.566Z,0
2017-09-09T05:00:41.982Z,0
2017-09-09T05:02:43.419Z,0
2017-09-09T05:04:44.893Z,0
2017-09-09T05:06:46.284Z,0
2017-09-09T05:08:47.701Z,0
2017-09-09T05:10:49.446Z,0
2017-09-09T05:12:51.396Z,0
2017-09-09T05:14:52.813Z,0
2017-09-09T05:16:54.319Z,0
2017-09-09T05:18:55.727Z,0
2017-09-09T05:20:57.271Z,0
2017-09-09T05:22:58.760Z,0
2017-09-09T05:25:00.217Z,0
2017-09-09T05:27:01.703Z,0
2017-09-09T05:29:03.139Z,0
2017-09-09T05:31:04.695Z,0
2017-09-09T05:33:06.188Z,0
2017-09-09T05:35:07.688Z,0
2017-09-09T05:37:09.150Z,0
2017-09-09T05:39:10.620Z,0
2017-09-09T05:41:12.113Z,0
2017-09-09T05:43:13.583Z,0
2017-09-09T05:45:15.128Z,0
2017-09-09T05:47:16.692Z,0
2017-09-09T05:49:18.148Z,0
2017-09-09T05:52:00.547Z,0
2017-09-09T05:54:01.962Z,0
2017-09-09T05:56:03.379Z,0
2017-09-09T05:58:05.507Z,0
2017-09-09T06:00:06.993Z,0
2017-09-09T06:02:08.412Z,0
2017-09-09T06:04:09.830Z,0
2017-09-09T06:06:11.243Z,0
2017-09-09T06:08:53.792Z,0
2017-09-09T06:10:55.183Z,0
2017-09-09T06:12:56.849Z,0
2017-09-09T06:14:58.380Z,0
2017-09-09T06:16:59.806Z,0
2017-09-09T06:19:01.219Z,5
2017-09-09T06:21:02.642Z,5
2017-09-09T06:23:04.198Z,5
2017-09-09T06:25:05.737Z,5
2017-09-09T06:27:07.341Z,0
2017-09-09T06:29:08.821Z,0
2017-09-09T06:31:10.333Z,5
2017-09-09T06:33:11.801Z,5
2017-09-09T06:35:13.321Z,5
2017-09-09T06:37:14.806Z,5
2017-09-09T06:39:16.269Z,5
2017-09-09T06:41:17.811Z,5
2017-09-09T06:43:19.297Z,5
2017-09-09T06:45:20.785Z,5
2017-09-09T06:47:22.212Z,5
2017-09-09T06:49:23.625Z,5
2017-09-09T06:51:25.489Z,5
2017-09-09T06:53:26.909Z,5
2017-09-09T06:56:09.314Z,5
2017-09-09T06:58:10.770Z,5
2017-09-09T07:00:12.484Z,5
2017-09-09T07:02:13.901Z,5
2017-09-09T07:04:15.347Z,10
2017-09-09T07:06:16.768Z,5
2017-09-09T07:08:18.191Z,5
2017-09-09T07:10:19.607Z,5
2017-09-09T07:12:21.020Z,5
2017-09-09T07:14:22.539Z,5
2017-09-09T07:16:23.974Z,10
2017-09-09T07:18:25.392Z,10
2017-09-09T07:20:26.807Z,10
2017-09-09T07:22:28.225Z,10
2017-09-09T07:24:29.667Z,5
2017-09-09T07:27:13.257Z,10
2017-09-09T07:29:14.660Z,10
2017-09-09T07:31:16.079Z,10
2017-09-09T07:33:17.501Z,10
2017-09-09T07:35:18.958Z,10
2017-09-09T07:37:20.441Z,10
2017-09-09T07:39:21.969Z,15
2017-09-09T07:41:23.473Z,20
2017-09-09T07:43:24.905Z,20
2017-09-09T07:45:26.323Z,20
2017-09-09T07:47:27.746Z,25
2017-09-09T07:49:29.199Z,25
2017-09-09T07:51:30.620Z,25
2017-09-09T07:53:32.038Z,20
2017-09-09T07:56:14.450Z,20
2017-09-09T07:58:15.867Z,20
2017-09-09T08:00:17.287Z,20
2017-09-09T08:02:18.710Z,20
2017-09-09T08:04:20.127Z,35
2017-09-09T08:06:21.549Z,35
2017-09-09T08:08:23.457Z,40
2017-09-09T08:10:24.873Z,30
2017-09-09T08:12:26.302Z,25
2017-09-09T08:15:09.705Z,25
2017-09-09T08:17:11.190Z,25
2017-09-09T08:19:12.676Z,25
2017-09-09T08:21:14.089Z,25
2017-09-09T08:23:15.685Z,35
2017-09-09T08:25:17.237Z,30
2017-09-09T08:27:18.792Z,30
2017-09-09T08:29:20.267Z,30
2017-09-09T08:31:21.800Z,25
2017-09-09T08:33:23.415Z,20
2017-09-09T08:35:24.869Z,25
2017-09-09T08:37:26.369Z,25
2017-09-09T08:39:27.827Z,30
2017-09-09T08:42:10.254Z,35
2017-09-09T08:44:11.742Z,20
2017-09-09T08:46:13.170Z,20
2017-09-09T08:48:14.586Z,10
2017-09-09T08:50:16.726Z,10
2017-09-09T08:52:18.152Z,15
2017-09-09T08:54:20.170Z,15
2017-09-09T08:56:21.581Z,15
2017-09-09T08:59:03.991Z,15
2017-09-09T09:01:06.287Z,15
2017-09-09T09:03:07.731Z,20
2017-09-09T09:05:09.126Z,20
2017-09-09T09:07:10.546Z,20
2017-09-09T09:09:11.964Z,30
2017-09-09T09:11:13.384Z,25
2017-09-09T09:13:14.811Z,25
2017-09-09T09:15:16.226Z,25
2017-09-09T09:17:17.697Z,30
2017-09-09T09:19:19.104Z,25
2017-09-09T09:21:20.535Z,35
2017-09-09T09:23:21.948Z,20
2017-09-09T09:25:23.361Z,15
2017-09-09T09:27:24.784Z,20
2017-09-09T09:29:26.204Z,20
2017-09-09T09:31:27.644Z,25
2017-09-09T09:34:10.063Z,35
2017-09-09T09:36:11.483Z,35
2017-09-09T09:38:12.900Z,45
2017-09-09T09:40:14.324Z,55
2017-09-09T09:42:15.749Z,60
2017-09-09T09:44:17.176Z,70
2017-09-09T09:46:18.590Z,75
2017-09-09T09:48:20.015Z,85
2017-09-09T09:50:21.434Z,155
2017-09-09T09:52:22.862Z,90
2017-09-09T09:54:24.282Z,95
2017-09-09T09:56:25.717Z,90
2017-09-09T09:58:27.142Z,50
2017-09-09T10:00:28.585Z,35
2017-09-09T10:02:30.290Z,30
2017-09-09T10:04:31.717Z,40
2017-09-09T10:06:33.651Z,85
2017-09-09T10:08:35.157Z,160
2017-09-09T10:10:36.690Z,155
2017-09-09T10:12:38.143Z,40
2017-09-09T10:14:39.688Z,35
2017-09-09T10:16:41.130Z,30
2017-09-09T10:18:42.533Z,25
2017-09-09T10:21:24.984Z,25
2017-09-09T10:23:26.403Z,25
2017-09-09T10:25:28.032Z,25
2017-09-09T10:27:29.709Z,25
2017-09-09T10:29:31.124Z,130
2017-09-09T10:31:32.550Z,120
2017-09-09T10:33:34.031Z,135
2017-09-09T10:35:35.461Z,135
2017-09-09T10:37:36.951Z,140
2017-09-09T10:39:38.502Z,135
2017-09-09T10:41:39.999Z,140
2017-09-09T10:43:41.534Z,145
2017-09-09T10:45:43.041Z,65
2017-09-09T10:47:44.476Z,55
2017-09-09T10:49:45.959Z,165
2017-09-09T10:51:47.465Z,50
2017-09-09T10:53:48.985Z,40
2017-09-09T10:55:50.431Z,30
2017-09-09T10:57:51.987Z,20
2017-09-09T10:59:53.450Z,15
2017-09-09T11:01:54.930Z,15
2017-09-09T11:03:56.404Z,15
2017-09-09T11:05:57.799Z,15
2017-09-09T11:08:40.201Z,25
2017-09-09T11:10:41.622Z,40
2017-09-09T11:12:43.167Z,40
2017-09-09T11:14:44.764Z,40
2017-09-09T11:16:46.149Z,25
2017-09-09T11:18:47.578Z,20
2017-09-09T11:20:49.004Z,20
2017-09-09T11:22:50.458Z,20
2017-09-09T11:25:33.853Z,25
2017-09-09T11:27:35.446Z,30
2017-09-09T11:29:36.886Z,35
2017-09-09T11:31:38.458Z,95
2017-09-09T11:33:39.960Z,110
2017-09-09T11:35:41.373Z,30
2017-09-09T11:37:42.946Z,30
2017-09-09T11:39:44.359Z,50
2017-09-09T11:41:45.862Z,130
2017-09-09T11:43:47.346Z,145
2017-09-09T11:45:48.771Z,135
2017-09-09T11:47:50.198Z,130
2017-09-09T11:49:51.625Z,135
2017-09-09T11:51:53.051Z,135
2017-09-09T11:53:54.495Z,130
2017-09-09T11:55:55.930Z,85
2017-09-09T11:57:57.370Z,35
2017-09-09T11:59:58.803Z,35
2017-09-09T12:02:00.259Z,40
2017-09-09T12:04:01.685Z,55
2017-09-09T12:06:03.113Z,160
2017-09-09T12:08:04.546Z,70
2017-09-09T12:10:06.074Z,130
2017-09-09T12:12:07.501Z,35
2017-09-09T12:14:50.171Z,30
2017-09-09T12:16:51.572Z,25
2017-09-09T12:18:52.990Z,25
2017-09-09T12:20:54.417Z,25
2017-09-09T12:22:55.845Z,20
2017-09-09T12:24:57.274Z,20
2017-09-09T12:26:58.890Z,25
2017-09-09T12:29:00.380Z,25
2017-09-09T12:31:01.799Z,30
2017-09-09T12:33:03.263Z,30
2017-09-09T12:35:04.690Z,35
2017-09-09T12:37:06.111Z,35
2017-09-09T12:39:07.549Z,45
2017-09-09T12:41:09.020Z,50
2017-09-09T12:43:51.396Z,50
2017-09-09T12:45:53.100Z,50
2017-09-09T12:47:54.606Z,40
2017-09-09T12:50:37.013Z,35
2017-09-09T12:52:38.435Z,35
2017-09-09T12:54:39.868Z,35
2017-09-09T12:56:41.285Z,35
2017-09-09T12:58:42.717Z,35
2017-09-09T13:00:44.268Z,35
2017-09-09T13:02:45.674Z,35
2017-09-09T13:04:47.104Z,30
2017-09-09T13:06:48.529Z,30
2017-09-09T13:08:49.958Z,30
2017-09-09T13:10:51.389Z,25
2017-09-09T13:12:52.862Z,20
2017-09-09T13:14:54.293Z,20
2017-09-09T13:16:55.815Z,20
2017-09-09T13:18:57.281Z,20
2017-09-09T13:20:58.729Z,25
2017-09-09T13:23:00.156Z,25
2017-09-09T13:25:01.571Z,25
2017-09-09T13:27:02.995Z,25
2017-09-09T13:29:04.417Z,25
2017-09-09T13:31:05.843Z,25
2017-09-09T13:33:07.262Z,30
2017-09-09T13:35:08.691Z,35
2017-09-09T13:37:10.110Z,35
2017-09-09T13:39:11.537Z,35
2017-09-09T13:41:12.967Z,35
2017-09-09T13:43:14.421Z,40
2017-09-09T13:45:15.878Z,35
2017-09-09T13:47:17.362Z,35
2017-09-09T13:49:18.856Z,35
2017-09-09T13:51:20.314Z,35
2017-09-09T13:53:21.911Z,35
2017-09-09T13:55:23.381Z,40
2017-09-09T13:57:24.930Z,45
2017-09-09T13:59:26.421Z,60
2017-09-09T14:01:27.933Z,65
2017-09-09T14:03:29.569Z,50
2017-09-09T14:05:31.075Z,55
2017-09-09T14:07:32.583Z,95
2017-09-09T14:09:34.170Z,60
2017-09-09T14:11:35.624Z,75
2017-09-09T14:13:37.086Z,75
2017-09-09T14:15:38.612Z,45
2017-09-09T14:17:40.037Z,50
2017-09-09T14:19:41.535Z,50
2017-09-09T14:21:42.990Z,65
2017-09-09T14:23:44.474Z,50
2017-09-09T14:25:45.932Z,70
2017-09-09T14:27:47.438Z,80
2017-09-09T14:29:48.899Z,80
2017-09-09T14:31:50.337Z,80
2017-09-09T14:33:51.805Z,75
2017-09-09T14:35:53.300Z,80
2017-09-09T14:37:54.813Z,75
2017-09-09T14:39:56.307Z,70
2017-09-09T14:41:57.811Z,70
2017-09-09T14:43:59.360Z,70
2017-09-09T14:46:00.868Z,70
2017-09-09T14:48:02.342Z,70
2017-09-09T14:50:44.765Z,70
2017-09-09T14:52:46.193Z,65
2017-09-09T14:54:47.622Z,60
2017-09-09T14:56:49.049Z,60
2017-09-09T14:58:50.476Z,55
2017-09-09T15:00:51.918Z,55
2017-09-09T15:03:34.328Z,55
2017-09-09T15:05:36.033Z,50
2017-09-09T15:07:37.614Z,50
2017-09-09T15:09:39.114Z,45
2017-09-09T15:11:40.540Z,45
2017-09-09T15:13:41.965Z,45
2017-09-09T15:15:43.394Z,45
2017-09-09T15:18:25.795Z,40
2017-09-09T15:21:08.209Z,40
2017-09-09T15:23:09.619Z,40
2017-09-09T15:25:11.050Z,40
2017-09-09T15:27:12.484Z,35
2017-09-09T15:29:13.913Z,40
2017-09-09T15:31:15.411Z,40
2017-09-09T15:33:57.816Z,40
2017-09-09T15:35:59.266Z,40
2017-09-09T15:38:41.651Z,20
2017-09-09T15:40:43.408Z,15
2017-09-09T15:42:44.916Z,15
2017-09-09T15:44:46.336Z,15
2017-09-09T15:46:47.757Z,15
2017-09-09T15:48:49.183Z,30
2017-09-09T15:51:31.584Z,25
2017-09-09T15:53:33.005Z,35
2017-09-09T15:55:34.442Z,20
2017-09-09T15:57:35.984Z,20
2017-09-09T15:59:37.403Z,15
2017-09-09T16:01:38.828Z,15
2017-09-09T16:03:40.255Z,15
2017-09-09T16:05:41.897Z,10
2017-09-09T16:07:43.391Z,10
2017-09-09T16:09:44.791Z,5
2017-09-09T16:11:46.209Z,5
2017-09-09T16:13:47.635Z,0
2017-09-09T16:15:49.145Z,0
2017-09-09T16:17:50.628Z,0
2017-09-09T16:19:52.087Z,0
2017-09-09T16:21:53.548Z,0
2017-09-09T16:23:55.024Z,0
2017-09-09T16:25:56.548Z,0
2017-09-09T16:27:58.075Z,0
2017-09-09T16:29:59.627Z,0
2017-09-09T16:32:01.089Z,0
2017-09-09T16:34:02.582Z,0
2017-09-09T16:36:04.086Z,5
2017-09-09T16:38:05.618Z,5
2017-09-09T16:40:48.033Z,10
2017-09-09T16:42:49.451Z,10
2017-09-09T16:44:51.059Z,15
2017-09-09T16:46:52.481Z,15
2017-09-09T16:48:53.906Z,20
2017-09-09T16:50:55.328Z,20
2017-09-09T16:52:56.754Z,20
2017-09-09T16:54:58.174Z,20
2017-09-09T16:57:40.579Z,20
2017-09-09T16:59:42.007Z,20
2017-09-09T17:01:43.418Z,15
2017-09-09T17:03:45.806Z,15
2017-09-09T17:05:47.167Z,15
2017-09-09T17:07:48.662Z,15
2017-09-09T17:09:50.115Z,15
2017-09-09T17:11:51.529Z,10
2017-09-09T17:13:52.969Z,10
2017-09-09T17:15:54.391Z,10
2017-09-09T17:17:55.821Z,10
2017-09-09T17:19:57.252Z,10
2017-09-09T17:21:58.674Z,10
2017-09-09T17:24:00.117Z,5
2017-09-09T17:26:01.544Z,5
2017-09-09T17:28:02.977Z,5
2017-09-09T17:30:04.393Z,5
2017-09-09T17:32:05.821Z,5
2017-09-09T17:34:07.511Z,0
2017-09-09T17:36:09.024Z,0
2017-09-09T17:38:10.506Z,0
2017-09-09T17:40:12.023Z,0
2017-09-09T17:42:13.576Z,0
2017-09-09T17:44:15.084Z,0
2017-09-09T17:46:16.673Z,0
2017-09-09T17:48:18.146Z,0
2017-09-09T17:50:19.642Z,0
2017-09-09T17:52:21.121Z,0
2017-09-09T17:54:22.605Z,0
2017-09-09T17:56:24.139Z,0
2017-09-09T17:58:25.711Z,0
2017-09-09T18:00:27.239Z,0
2017-09-09T18:02:28.662Z,0
2017-09-09T18:04:30.110Z,0
2017-09-09T18:06:31.528Z,0
2017-09-09T18:08:32.951Z,0
2017-09-09T18:10:34.420Z,0
2017-09-09T18:12:36.002Z,0
2017-09-09T18:14:37.440Z,0
2017-09-09T18:16:38.858Z,0
2017-09-09T18:18:40.273Z,0
2017-09-09T18:20:41.695Z,0
2017-09-09T18:22:43.145Z,0
2017-09-09T18:24:44.610Z,0
2017-09-09T18:26:46.028Z,0
2017-09-09T18:28:47.462Z,0
2017-09-09T18:30:48.939Z,0
2017-09-09T18:32:50.368Z,0
2017-09-09T18:34:51.861Z,0
2017-09-09T18:36:53.240Z,0
2017-09-09T18:38:54.655Z,0
2017-09-09T18:40:56.148Z,0
2017-09-09T18:42:57.624Z,0
2017-09-09T18:44:59.057Z,0
2017-09-09T18:47:00.531Z,0
2017-09-09T18:49:02.127Z,0
2017-09-09T18:51:03.719Z,0
2017-09-09T18:53:05.287Z,0
2017-09-09T18:55:07.231Z,0
2017-09-09T18:57:09.245Z,0
2017-09-09T18:59:11.136Z,0
2017-09-09T19:01:12.677Z,0
2017-09-09T19:03:14.149Z,0
2017-09-09T19:05:15.638Z,0
2017-09-09T19:07:17.269Z,0
2017-09-09T19:09:18.946Z,0
2017-09-09T19:11:20.513Z,0
2017-09-09T19:13:21.997Z,0
2017-09-09T19:15:23.470Z,0
2017-09-09T19:17:24.969Z,0
2017-09-09T19:20:07.361Z,0
2017-09-09T19:22:09.227Z,0
2017-09-09T19:24:10.636Z,0
2017-09-09T19:26:12.080Z,0
2017-09-09T19:28:13.494Z,0
2017-09-09T19:30:14.909Z,0
2017-09-09T19:32:16.332Z,0
2017-09-09T19:34:59.333Z,0
2017-09-09T19:37:00.679Z,0
2017-09-09T19:39:02.096Z,0
2017-09-09T19:41:03.511Z,0
2017-09-09T19:43:04.946Z,0
2017-09-09T19:45:06.798Z,0
2017-09-09T19:47:08.238Z,0
2017-09-09T19:49:09.679Z,0
2017-09-09T19:51:11.112Z,0
2017-09-09T19:53:12.605Z,0
2017-09-09T19:55:14.045Z,0
2017-09-09T19:57:15.501Z,0
2017-09-09T19:59:17.028Z,0
2017-09-09T20:01:18.891Z,0
2017-09-09T20:03:20.362Z,0
2017-09-09T20:05:21.887Z,0
2017-09-09T20:07:23.420Z,0
2017-09-09T20:09:24.904Z,0
2017-09-09T20:11:26.363Z,0
2017-09-09T20:13:27.972Z,0
2017-09-09T20:15:29.462Z,0
2017-09-09T20:17:30.928Z,0
2017-09-09T20:19:32.406Z,0
2017-09-09T20:22:14.870Z,0
2017-09-09T20:24:16.291Z,0
2017-09-09T20:26:17.708Z,0
2017-09-09T20:28:19.125Z,0
2017-09-09T20:30:20.818Z,0
2017-09-09T20:32:22.359Z,0
2017-09-09T20:34:23.782Z,0
2017-09-09T20:36:25.194Z,0
2017-09-09T20:38:26.609Z,0
2017-09-09T20:40:28.031Z,0
2017-09-09T20:43:10.467Z,0
2017-09-09T20:45:11.874Z,0
2017-09-09T20:47:13.289Z,0
2017-09-09T20:49:14.701Z,0
2017-09-09T20:51:16.116Z,0
2017-09-09T20:53:17.844Z,0
2017-09-09T20:55:19.243Z,0
2017-09-09T20:57:20.663Z,0
2017-09-09T20:59:22.107Z,0
2017-09-09T21:01:23.608Z,0
2017-09-09T21:03:25.044Z,0
2017-09-09T21:05:26.492Z,0
2017-09-09T21:07:27.975Z,0
2017-09-09T21:09:29.435Z,0
2017-09-09T21:11:30.917Z,0
2017-09-09T21:14:13.304Z,0
2017-09-09T21:16:14.723Z,0
2017-09-09T21:18:16.143Z,0
2017-09-09T21:20:17.558Z,0
2017-09-09T21:22:18.973Z,0
2017-09-09T21:24:20.397Z,0
2017-09-09T21:26:21.803Z,0
2017-09-09T21:28:23.243Z,0
2017-09-09T21:30:24.698Z,0
2017-09-09T21:32:27.202Z,0
2017-09-09T21:34:28.915Z,0
2017-09-09T21:36:30.338Z,0
2017-09-09T21:38:31.795Z,0
2017-09-09T21:41:14.880Z,0
2017-09-09T21:43:16.203Z,0
2017-09-09T21:45:58.594Z,0
2017-09-09T21:48:00.174Z,0
2017-09-09T21:50:01.589Z,0
2017-09-09T21:52:03.015Z,0
2017-09-09T21:54:04.418Z,0
2017-09-09T21:56:05.837Z,0
2017-09-09T21:58:07.268Z,0
2017-09-09T22:00:08.682Z,0
2017-09-09T22:02:10.924Z,0
2017-09-09T22:04:12.281Z,0
2017-09-09T22:06:13.696Z,0
2017-09-09T22:08:15.111Z,0
2017-09-09T22:10:16.532Z,0
2017-09-09T22:12:17.954Z,0
2017-09-09T22:14:19.360Z,0
2017-09-09T22:16:20.777Z,0
2017-09-09T22:18:22.188Z,0
2017-09-09T22:20:23.610Z,0
2017-09-09T22:22:25.125Z,0
2017-09-09T22:24:26.573Z,0
2017-09-09T22:26:28.035Z,0
2017-09-09T22:28:29.501Z,0
2017-09-09T22:30:31.056Z,0
2017-09-09T22:32:32.667Z,0
2017-09-09T22:35:15.141Z,0
2017-09-09T22:37:17.545Z,0
2017-09-09T22:39:18.880Z,0
2017-09-09T22:41:20.321Z,0
2017-09-09T22:43:21.708Z,0
2017-09-09T22:46:04.280Z,0
2017-09-09T22:48:05.686Z,0
2017-09-09T22:50:07.901Z,0
2017-09-09T22:52:09.444Z,0
2017-09-09T22:54:51.811Z,0
2017-09-09T22:56:53.229Z,0
2017-09-09T22:58:54.646Z,0
2017-09-09T23:00:56.074Z,0
2017-09-09T23:02:57.490Z,0
2017-09-09T23:04:59.209Z,0
2017-09-09T23:07:00.614Z,0
2017-09-09T23:09:02.037Z,0
2017-09-09T23:11:03.470Z,0
2017-09-09T23:13:04.911Z,0
2017-09-09T23:15:06.346Z,0
2017-09-09T23:17:07.764Z,0
2017-09-09T23:19:09.194Z,0
2017-09-09T23:21:10.608Z,0
2017-09-09T23:23:12.024Z,0
2017-09-09T23:25:13.438Z,0
2017-09-09T23:27:14.870Z,0
2017-09-09T23:29:16.280Z,0
2017-09-09T23:31:17.854Z,0
2017-09-09T23:33:19.343Z,0
2017-09-09T23:35:20.814Z,0
2017-09-09T23:37:22.332Z,0
2017-09-09T23:39:23.812Z,0
2017-09-09T23:41:25.332Z,0
2017-09-09T23:43:26.797Z,0
2017-09-09T23:45:28.270Z,0
2017-09-09T23:47:29.766Z,0
2017-09-09T23:49:31.193Z,0
2017-09-09T23:51:32.698Z,0
2017-09-09T23:53:34.153Z,0
2017-09-09T23:55:35.671Z,0
2017-09-09T23:57:37.137Z,0
2017-09-09T23:59:38.570Z,0
